createdAt,value
2018-02-25T00:00:01.013Z,1005.76
2018-02-25T00:01:10.742Z,1005.74
2018-02-25T00:02:20.464Z,1005.7
2018-02-25T00:03:30.594Z,1005.69
2018-02-25T00:04:40.580Z,1005.66
2018-02-25T00:05:50.578Z,1005.65
2018-02-25T00:07:00.301Z,1005.68
2018-02-25T00:08:10.298Z,1005.64
2018-02-25T00:09:20.024Z,1005.6
2018-02-25T00:10:29.756Z,1005.59
2018-02-25T00:11:39.744Z,1005.51
2018-02-25T00:12:49.746Z,1005.54
2018-02-25T00:13:59.470Z,1005.49
2018-02-25T00:15:09.459Z,1005.57
2018-02-25T00:16:19.448Z,1005.56
2018-02-25T00:17:29.176Z,1005.56
2018-02-25T00:18:39.179Z,1005.5
2018-02-25T00:19:48.908Z,1005.55
2018-02-25T00:20:58.630Z,1005.55
2018-02-25T00:22:08.619Z,1005.58
2018-02-25T00:23:18.349Z,1005.6
2018-02-25T00:24:28.342Z,1005.65
2018-02-25T00:25:38.335Z,1005.69
2018-02-25T00:26:48.058Z,1005.73
2018-02-25T00:27:58.044Z,1005.75
2018-02-25T00:29:08.094Z,1005.84
2018-02-25T00:30:18.100Z,1005.84
2018-02-25T00:31:28.096Z,1005.8
2018-02-25T00:32:37.816Z,1005.77
2018-02-25T00:33:47.808Z,1005.78
2018-02-25T00:34:57.807Z,1005.84
2018-02-25T00:36:07.798Z,1005.85
2018-02-25T00:37:17.791Z,1005.9
2018-02-25T00:38:27.883Z,1005.96
2018-02-25T00:39:37.878Z,1006
2018-02-25T00:40:47.869Z,1006
2018-02-25T00:41:57.868Z,1005.98
2018-02-25T00:43:07.860Z,1006.04
2018-02-25T00:44:17.586Z,1006.04
2018-02-25T00:45:27.352Z,1006.08
2018-02-25T00:46:37.078Z,1006.05
2018-02-25T00:47:47.075Z,1006.05
2018-02-25T00:48:57.066Z,1006
2018-02-25T00:50:07.067Z,1006.01
2018-02-25T00:51:17.068Z,1006.02
2018-02-25T00:52:26.795Z,1006.09
2018-02-25T00:53:36.788Z,1006.09
2018-02-25T00:54:46.786Z,1006.09
2018-02-25T00:55:56.773Z,1006.1
2018-02-25T00:57:06.495Z,1006.11
2018-02-25T00:58:16.481Z,1006.09
2018-02-25T00:59:26.477Z,1006.03
2018-02-25T01:00:36.263Z,1006.1
2018-02-25T01:01:46.395Z,1006.11
2018-02-25T01:02:56.121Z,1006.06
2018-02-25T01:04:05.847Z,1006.12
2018-02-25T01:05:15.842Z,1006.1
2018-02-25T01:06:25.833Z,1006.12
2018-02-25T01:07:35.557Z,1006.14
2018-02-25T01:08:45.540Z,1006.14
2018-02-25T01:09:54.995Z,1006.16
2018-02-25T01:11:04.722Z,1006.19
2018-02-25T01:12:14.716Z,1006.18
2018-02-25T01:13:24.448Z,1006.15
2018-02-25T01:14:34.441Z,1006.21
2018-02-25T01:15:44.433Z,1006.21
2018-02-25T01:16:54.438Z,1006.19
2018-02-25T01:18:04.168Z,1006.25
2018-02-25T01:19:13.893Z,1006.2
2018-02-25T01:20:23.883Z,1006.23
2018-02-25T01:21:33.895Z,1006.24
2018-02-25T01:22:43.627Z,1006.25
2018-02-25T01:23:53.615Z,1006.25
2018-02-25T01:25:03.622Z,1006.26
2018-02-25T01:26:13.613Z,1006.29
2018-02-25T01:27:23.604Z,1006.27
2018-02-25T01:28:33.328Z,1006.35
2018-02-25T01:29:43.319Z,1006.3
2018-02-25T01:30:53.312Z,1006.28
2018-02-25T01:32:03.302Z,1006.27
2018-02-25T01:33:13.298Z,1006.28
2018-02-25T01:34:23.023Z,1006.29
2018-02-25T01:35:32.750Z,1006.27
2018-02-25T01:36:42.520Z,1006.26
2018-02-25T01:37:52.517Z,1006.24
2018-02-25T01:39:02.252Z,1006.21
2018-02-25T01:40:12.243Z,1006.26
2018-02-25T01:41:21.970Z,1006.25
2018-02-25T01:42:31.425Z,1006.25
2018-02-25T01:43:41.418Z,1006.29
2018-02-25T01:44:51.143Z,1006.27
2018-02-25T01:46:01.135Z,1006.32
2018-02-25T01:47:11.129Z,1006.3
2018-02-25T01:48:21.221Z,1006.33
2018-02-25T01:49:31.215Z,1006.34
2018-02-25T01:50:41.208Z,1006.36
2018-02-25T01:51:51.196Z,1006.34
2018-02-25T01:53:01.200Z,1006.33
2018-02-25T01:54:10.931Z,1006.34
2018-02-25T01:55:20.655Z,1006.31
2018-02-25T01:56:30.380Z,1006.31
2018-02-25T01:57:40.384Z,1006.39
2018-02-25T01:58:49.843Z,1006.36
2018-02-25T01:59:59.844Z,1006.33
2018-02-25T02:01:09.568Z,1006.36
2018-02-25T02:02:19.288Z,1006.35
2018-02-25T02:03:29.291Z,1006.37
2018-02-25T02:04:39.017Z,1006.44
2018-02-25T02:05:49.010Z,1006.45
2018-02-25T02:06:58.751Z,1006.45
2018-02-25T02:08:08.483Z,1006.45
2018-02-25T02:09:18.475Z,1006.41
2018-02-25T02:10:28.472Z,1006.44
2018-02-25T02:11:38.466Z,1006.42
2018-02-25T02:12:48.453Z,1006.47
2018-02-25T02:13:58.443Z,1006.5
2018-02-25T02:15:08.441Z,1006.51
2018-02-25T02:16:18.423Z,1006.51
2018-02-25T02:17:28.478Z,1006.57
2018-02-25T02:18:38.186Z,1006.55
2018-02-25T02:19:47.913Z,1006.48
2018-02-25T02:20:57.902Z,1006.51
2018-02-25T02:22:07.363Z,1006.51
2018-02-25T02:23:17.357Z,1006.55
2018-02-25T02:24:27.348Z,1006.53
2018-02-25T02:25:37.345Z,1006.53
2018-02-25T02:26:47.341Z,1006.56
2018-02-25T02:27:57.066Z,1006.57
2018-02-25T02:29:07.051Z,1006.52
2018-02-25T02:30:16.514Z,1006.51
2018-02-25T02:31:25.983Z,1006.56
2018-02-25T02:32:35.714Z,1006.53
2018-02-25T02:33:45.715Z,1006.55
2018-02-25T02:34:55.720Z,1006.57
2018-02-25T02:36:05.452Z,1006.62
2018-02-25T02:37:15.460Z,1006.59
2018-02-25T02:38:25.462Z,1006.6
2018-02-25T02:39:35.451Z,1006.61
2018-02-25T02:40:45.476Z,1006.6
2018-02-25T02:41:55.468Z,1006.64
2018-02-25T02:43:05.203Z,1006.71
2018-02-25T02:44:15.214Z,1006.69
2018-02-25T02:45:24.939Z,1006.71
2018-02-25T02:46:34.939Z,1006.72
2018-02-25T02:47:44.941Z,1006.72
2018-02-25T02:48:54.943Z,1006.72
2018-02-25T02:50:04.946Z,1006.78
2018-02-25T02:51:14.664Z,1006.75
2018-02-25T02:52:24.393Z,1006.75
2018-02-25T02:53:34.395Z,1006.78
2018-02-25T02:54:44.136Z,1006.79
2018-02-25T02:55:54.143Z,1006.84
2018-02-25T02:57:03.867Z,1006.9
2018-02-25T02:58:13.878Z,1006.95
2018-02-25T02:59:23.871Z,1006.97
2018-02-25T03:00:33.599Z,1006.98
2018-02-25T03:01:43.583Z,1006.93
2018-02-25T03:02:53.319Z,1006.92
2018-02-25T03:04:02.831Z,1006.92
2018-02-25T03:05:12.831Z,1006.89
2018-02-25T03:06:22.829Z,1006.93
2018-02-25T03:07:32.561Z,1006.94
2018-02-25T03:08:42.290Z,1006.99
2018-02-25T03:09:52.388Z,1006.99
2018-02-25T03:11:01.579Z,1007.03
2018-02-25T03:12:11.577Z,1007.01
2018-02-25T03:13:21.570Z,1007.02
2018-02-25T03:14:31.557Z,1007.05
2018-02-25T03:15:41.546Z,1007
2018-02-25T03:16:51.277Z,1007.02
2018-02-25T03:18:00.996Z,1007.04
2018-02-25T03:19:10.981Z,1007.01
2018-02-25T03:20:20.975Z,1007.1
2018-02-25T03:21:31.069Z,1007.14
2018-02-25T03:22:41.064Z,1007.16
2018-02-25T03:23:50.785Z,1007.18
2018-02-25T03:25:00.788Z,1007.17
2018-02-25T03:26:10.509Z,1007.23
2018-02-25T03:27:20.270Z,1007.2
2018-02-25T03:28:30.262Z,1007.25
2018-02-25T03:29:39.984Z,1007.22
2018-02-25T03:30:49.977Z,1007.21
2018-02-25T03:31:59.974Z,1007.22
2018-02-25T03:33:09.966Z,1007.25
2018-02-25T03:34:19.956Z,1007.3
2018-02-25T03:35:29.683Z,1007.3
2018-02-25T03:36:39.671Z,1007.3
2018-02-25T03:37:49.388Z,1007.28
2018-02-25T03:38:59.480Z,1007.29
2018-02-25T03:40:09.475Z,1007.3
2018-02-25T03:41:19.471Z,1007.28
2018-02-25T03:42:28.927Z,1007.28
2018-02-25T03:43:38.916Z,1007.25
2018-02-25T03:44:48.903Z,1007.32
2018-02-25T03:45:58.627Z,1007.35
2018-02-25T03:47:08.616Z,1007.38
2018-02-25T03:48:18.605Z,1007.32
2018-02-25T03:49:28.594Z,1007.35
2018-02-25T03:50:38.054Z,1007.35
2018-02-25T03:51:48.054Z,1007.33
2018-02-25T03:52:58.049Z,1007.33
2018-02-25T03:54:08.035Z,1007.35
2018-02-25T03:55:18.038Z,1007.37
2018-02-25T03:56:27.769Z,1007.35
2018-02-25T03:57:37.491Z,1007.37
2018-02-25T03:58:47.212Z,1007.42
2018-02-25T03:59:57.207Z,1007.45
2018-02-25T04:04:15.103Z,1007.49
2018-02-25T04:05:25.096Z,1007.51
2018-02-25T04:06:35.090Z,1007.58
2018-02-25T04:07:44.812Z,1007.62
2018-02-25T04:08:54.804Z,1007.69
2018-02-25T04:10:04.801Z,1007.68
2018-02-25T04:11:14.529Z,1007.68
2018-02-25T04:12:24.548Z,1007.67
2018-02-25T04:13:34.532Z,1007.62
2018-02-25T04:14:44.519Z,1007.63
2018-02-25T04:15:54.243Z,1007.64
2018-02-25T04:17:03.705Z,1007.64
2018-02-25T04:18:13.695Z,1007.62
2018-02-25T04:19:23.682Z,1007.67
2018-02-25T04:20:33.402Z,1007.68
2018-02-25T04:21:42.857Z,1007.73
2018-02-25T04:22:52.849Z,1007.69
2018-02-25T04:24:02.576Z,1007.74
2018-02-25T04:25:12.295Z,1007.74
2018-02-25T04:26:22.281Z,1007.79
2018-02-25T04:27:32.264Z,1007.78
2018-02-25T04:28:42.261Z,1007.77
2018-02-25T04:29:51.983Z,1007.82
2018-02-25T04:31:01.442Z,1007.83
2018-02-25T04:32:11.163Z,1007.87
2018-02-25T04:33:21.157Z,1007.88
2018-02-25T04:34:30.884Z,1007.85
2018-02-25T04:35:40.878Z,1007.83
2018-02-25T04:36:50.920Z,1007.74
2018-02-25T04:38:00.638Z,1007.75
2018-02-25T04:39:10.627Z,1007.74
2018-02-25T04:40:20.620Z,1007.7
2018-02-25T04:41:30.609Z,1007.71
2018-02-25T04:42:40.596Z,1007.79
2018-02-25T04:43:50.320Z,1007.77
2018-02-25T04:45:00.315Z,1007.82
2018-02-25T04:46:10.041Z,1007.84
2018-02-25T04:47:20.044Z,1007.81
2018-02-25T04:48:30.038Z,1007.84
2018-02-25T04:49:40.026Z,1007.81
2018-02-25T04:50:50.032Z,1007.84
2018-02-25T04:52:00.020Z,1007.91
2018-02-25T04:53:10.012Z,1008.02
2018-02-25T04:54:19.746Z,1008.05
2018-02-25T04:55:29.732Z,1008.11
2018-02-25T04:56:39.727Z,1008.16
2018-02-25T04:57:49.725Z,1008.15
2018-02-25T04:58:59.716Z,1008.17
2018-02-25T05:00:09.716Z,1008.18
2018-02-25T05:01:19.708Z,1008.24
2018-02-25T05:02:29.699Z,1008.3
2018-02-25T05:03:39.690Z,1008.26
2018-02-25T05:04:49.678Z,1008.25
2018-02-25T05:05:59.683Z,1008.28
2018-02-25T05:07:09.673Z,1008.25
2018-02-25T05:08:19.658Z,1008.21
2018-02-25T05:09:29.645Z,1008.23
2018-02-25T05:10:39.637Z,1008.19
2018-02-25T05:11:49.628Z,1008.17
2018-02-25T05:12:59.625Z,1008.19
2018-02-25T05:14:09.620Z,1008.21
2018-02-25T05:15:19.605Z,1008.21
2018-02-25T05:16:29.613Z,1008.25
2018-02-25T05:17:39.609Z,1008.3
2018-02-25T05:18:49.695Z,1008.31
2018-02-25T05:19:59.416Z,1008.32
2018-02-25T05:21:09.404Z,1008.32
2018-02-25T05:22:19.393Z,1008.34
2018-02-25T05:23:29.387Z,1008.39
2018-02-25T05:24:39.372Z,1008.41
2018-02-25T05:25:49.092Z,1008.39
2018-02-25T05:26:59.082Z,1008.38
2018-02-25T05:28:09.083Z,1008.37
2018-02-25T05:29:19.079Z,1008.41
2018-02-25T05:30:29.072Z,1008.38
2018-02-25T05:31:39.059Z,1008.41
2018-02-25T05:32:48.779Z,1008.41
2018-02-25T05:33:58.821Z,1008.33
2018-02-25T05:35:08.550Z,1008.3
2018-02-25T05:36:18.647Z,1008.38
2018-02-25T05:37:28.369Z,1008.36
2018-02-25T05:38:38.367Z,1008.35
2018-02-25T05:39:48.361Z,1008.39
2018-02-25T05:40:58.362Z,1008.37
2018-02-25T05:42:08.456Z,1008.36
2018-02-25T05:43:18.446Z,1008.35
2018-02-25T05:44:28.177Z,1008.39
2018-02-25T05:45:38.168Z,1008.41
2018-02-25T05:46:47.895Z,1008.44
2018-02-25T05:47:57.885Z,1008.4
2018-02-25T05:49:07.610Z,1008.32
2018-02-25T05:50:17.602Z,1008.36
2018-02-25T05:51:27.596Z,1008.39
2018-02-25T05:52:37.588Z,1008.37
2018-02-25T05:53:47.315Z,1008.38
2018-02-25T05:54:57.305Z,1008.43
2018-02-25T05:56:07.301Z,1008.43
2018-02-25T05:57:17.294Z,1008.43
2018-02-25T05:58:27.280Z,1008.48
2018-02-25T05:59:37.004Z,1008.47
2018-02-25T06:00:46.737Z,1008.52
2018-02-25T06:01:56.730Z,1008.49
2018-02-25T06:03:06.716Z,1008.56
2018-02-25T06:04:16.701Z,1008.61
2018-02-25T06:05:26.425Z,1008.65
2018-02-25T06:06:36.415Z,1008.7
2018-02-25T06:07:46.409Z,1008.69
2018-02-25T06:08:56.412Z,1008.66
2018-02-25T06:10:06.405Z,1008.66
2018-02-25T06:11:16.129Z,1008.64
2018-02-25T06:12:25.585Z,1008.69
2018-02-25T06:13:35.571Z,1008.71
2018-02-25T06:14:45.290Z,1008.75
2018-02-25T06:15:54.755Z,1008.77
2018-02-25T06:17:04.478Z,1008.77
2018-02-25T06:18:14.470Z,1008.8
2018-02-25T06:19:24.205Z,1008.76
2018-02-25T06:20:33.934Z,1008.77
2018-02-25T06:21:43.926Z,1008.82
2018-02-25T06:22:53.916Z,1008.83
2018-02-25T06:24:03.924Z,1008.88
2018-02-25T06:25:13.917Z,1008.91
2018-02-25T06:26:23.920Z,1008.92
2018-02-25T06:27:33.915Z,1008.91
2018-02-25T06:28:43.905Z,1008.93
2018-02-25T06:29:53.640Z,1008.96
2018-02-25T06:31:03.634Z,1008.98
2018-02-25T06:32:13.623Z,1008.95
2018-02-25T06:33:23.359Z,1008.96
2018-02-25T06:34:33.351Z,1008.97
2018-02-25T06:35:43.083Z,1008.94
2018-02-25T06:36:53.075Z,1008.96
2018-02-25T06:38:03.065Z,1009.01
2018-02-25T06:39:13.053Z,1008.98
2018-02-25T06:40:23.052Z,1008.97
2018-02-25T06:41:33.039Z,1008.96
2018-02-25T06:42:42.763Z,1009.01
2018-02-25T06:43:52.483Z,1009.04
2018-02-25T06:45:02.514Z,1009.05
2018-02-25T06:46:12.499Z,1009.07
2018-02-25T06:47:22.487Z,1009.1
2018-02-25T06:48:32.477Z,1009.04
2018-02-25T06:49:42.197Z,1009.1
2018-02-25T06:50:51.922Z,1009.09
2018-02-25T06:52:01.645Z,1009.07
2018-02-25T06:53:11.635Z,1009.11
2018-02-25T06:54:21.634Z,1009.09
2018-02-25T06:55:31.358Z,1009.09
2018-02-25T06:56:41.085Z,1009.09
2018-02-25T06:57:51.076Z,1009.09
2018-02-25T06:59:01.065Z,1009.13
2018-02-25T07:00:11.063Z,1009.11
2018-02-25T07:01:20.779Z,1009.12
2018-02-25T07:02:30.498Z,1009.08
2018-02-25T07:03:40.491Z,1009.11
2018-02-25T07:04:50.217Z,1009.18
2018-02-25T07:05:59.946Z,1009.21
2018-02-25T07:07:09.676Z,1009.28
2018-02-25T07:08:19.670Z,1009.26
2018-02-25T07:09:29.663Z,1009.27
2018-02-25T07:10:39.651Z,1009.26
2018-02-25T07:11:49.378Z,1009.23
2018-02-25T07:12:59.364Z,1009.24
2018-02-25T07:14:09.361Z,1009.23
2018-02-25T07:15:19.354Z,1009.22
2018-02-25T07:16:29.077Z,1009.27
2018-02-25T07:17:38.799Z,1009.27
2018-02-25T07:18:48.790Z,1009.29
2018-02-25T07:19:58.778Z,1009.26
2018-02-25T07:21:08.772Z,1009.29
2018-02-25T07:22:18.825Z,1009.32
2018-02-25T07:23:28.818Z,1009.28
2018-02-25T07:24:38.812Z,1009.3
2018-02-25T07:25:48.800Z,1009.31
2018-02-25T07:26:58.791Z,1009.33
2018-02-25T07:28:08.254Z,1009.34
2018-02-25T07:29:18.242Z,1009.37
2018-02-25T07:30:27.695Z,1009.38
2018-02-25T07:31:37.683Z,1009.37
2018-02-25T07:32:47.209Z,1009.33
2018-02-25T07:33:56.966Z,1009.35
2018-02-25T07:35:06.693Z,1009.34
2018-02-25T07:36:16.436Z,1009.36
2018-02-25T07:37:26.435Z,1009.36
2018-02-25T07:38:36.426Z,1009.33
2018-02-25T07:39:46.409Z,1009.41
2018-02-25T07:40:56.404Z,1009.37
2018-02-25T07:42:06.397Z,1009.35
2018-02-25T07:43:16.524Z,1009.43
2018-02-25T07:44:26.510Z,1009.38
2018-02-25T07:45:36.243Z,1009.38
2018-02-25T07:46:45.964Z,1009.41
2018-02-25T07:47:55.956Z,1009.43
2018-02-25T07:49:05.679Z,1009.42
2018-02-25T07:50:15.671Z,1009.43
2018-02-25T07:51:25.709Z,1009.46
2018-02-25T07:52:35.501Z,1009.49
2018-02-25T07:53:45.490Z,1009.5
2018-02-25T07:54:55.210Z,1009.5
2018-02-25T07:56:05.217Z,1009.55
2018-02-25T07:57:14.944Z,1009.56
2018-02-25T07:58:24.934Z,1009.61
2018-02-25T07:59:34.660Z,1009.59
2018-02-25T08:00:44.387Z,1009.6
2018-02-25T08:01:54.374Z,1009.62
2018-02-25T08:03:04.367Z,1009.62
2018-02-25T08:04:14.359Z,1009.62
2018-02-25T08:05:24.355Z,1009.57
2018-02-25T08:06:34.398Z,1009.59
2018-02-25T08:07:44.131Z,1009.62
2018-02-25T08:08:54.131Z,1009.62
2018-02-25T08:10:03.586Z,1009.62
2018-02-25T08:11:13.582Z,1009.67
2018-02-25T08:12:23.566Z,1009.63
2018-02-25T08:13:33.293Z,1009.61
2018-02-25T08:14:43.304Z,1009.65
2018-02-25T08:15:53.307Z,1009.62
2018-02-25T08:17:03.301Z,1009.62
2018-02-25T08:18:13.292Z,1009.6
2018-02-25T08:19:23.382Z,1009.66
2018-02-25T08:20:32.838Z,1009.66
2018-02-25T08:21:42.832Z,1009.74
2018-02-25T08:22:52.561Z,1009.77
2018-02-25T08:24:02.565Z,1009.77
2018-02-25T08:25:12.557Z,1009.85
2018-02-25T08:26:22.560Z,1009.86
2018-02-25T08:27:32.285Z,1009.84
2018-02-25T08:28:42.276Z,1009.79
2018-02-25T08:29:52.003Z,1009.77
2018-02-25T08:31:01.763Z,1009.84
2018-02-25T08:32:11.492Z,1009.82
2018-02-25T08:33:21.501Z,1009.88
2018-02-25T08:34:31.493Z,1009.88
2018-02-25T08:35:41.481Z,1009.92
2018-02-25T08:36:50.944Z,1009.86
2018-02-25T08:38:00.936Z,1009.9
2018-02-25T08:39:10.934Z,1009.94
2018-02-25T08:40:20.660Z,1009.91
2018-02-25T08:41:30.112Z,1009.91
2018-02-25T08:42:40.106Z,1009.91
2018-02-25T08:43:50.104Z,1009.92
2018-02-25T08:45:00.100Z,1009.94
2018-02-25T08:46:10.090Z,1009.89
2018-02-25T08:47:19.822Z,1009.93
2018-02-25T08:48:29.909Z,1009.92
2018-02-25T08:49:39.895Z,1009.91
2018-02-25T08:50:49.883Z,1009.94
2018-02-25T08:51:59.609Z,1009.99
2018-02-25T08:53:09.603Z,1009.95
2018-02-25T08:54:19.603Z,1009.93
2018-02-25T08:55:29.326Z,1009.99
2018-02-25T08:56:39.321Z,1010.05
2018-02-25T08:57:49.315Z,1010.09
2018-02-25T08:58:59.331Z,1010.05
2018-02-25T09:00:09.327Z,1010.07
2018-02-25T09:01:19.321Z,1010.07
2018-02-25T09:02:29.311Z,1010.08
2018-02-25T09:03:39.305Z,1010.06
2018-02-25T09:04:48.758Z,1010.07
2018-02-25T09:05:58.845Z,1010.11
2018-02-25T09:07:08.847Z,1010.11
2018-02-25T09:08:18.572Z,1010.15
2018-02-25T09:09:28.296Z,1010.19
2018-02-25T09:10:38.290Z,1010.24
2018-02-25T09:11:48.015Z,1010.25
2018-02-25T09:12:57.741Z,1010.19
2018-02-25T09:14:07.520Z,1010.13
2018-02-25T09:15:17.541Z,1010.12
2018-02-25T09:16:27.534Z,1010.11
2018-02-25T09:17:37.263Z,1010.14
2018-02-25T09:18:47.259Z,1010.18
2018-02-25T09:19:56.986Z,1010.21
2018-02-25T09:21:06.987Z,1010.19
2018-02-25T09:22:16.978Z,1010.2
2018-02-25T09:23:26.972Z,1010.21
2018-02-25T09:24:36.959Z,1010.19
2018-02-25T09:25:46.697Z,1010.15
2018-02-25T09:26:56.682Z,1010.11
2018-02-25T09:28:06.148Z,1010.08
2018-02-25T09:29:15.612Z,1010.06
2018-02-25T09:30:25.340Z,1010.07
2018-02-25T09:31:35.541Z,1010.14
2018-02-25T09:32:45.540Z,1010.16
2018-02-25T09:33:55.527Z,1010.19
2018-02-25T09:35:05.252Z,1010.2
2018-02-25T09:36:15.258Z,1010.19
2018-02-25T09:37:25.252Z,1010.2
2018-02-25T09:38:34.708Z,1010.21
2018-02-25T09:39:44.443Z,1010.27
2018-02-25T09:40:54.436Z,1010.25
2018-02-25T09:42:04.475Z,1010.23
2018-02-25T09:43:14.458Z,1010.16
2018-02-25T09:44:24.460Z,1010.08
2018-02-25T09:45:34.192Z,1010.06
2018-02-25T09:46:43.650Z,1010.04
2018-02-25T09:47:53.646Z,1010.08
2018-02-25T09:49:03.109Z,1010.12
2018-02-25T09:50:12.837Z,1010.11
2018-02-25T09:51:22.826Z,1010.12
2018-02-25T09:52:32.292Z,1010.09
2018-02-25T09:53:42.034Z,1010.13
2018-02-25T09:54:51.762Z,1010.16
2018-02-25T09:56:01.491Z,1010.24
2018-02-25T09:57:11.482Z,1010.26
2018-02-25T09:58:21.216Z,1010.33
2018-02-25T09:59:30.998Z,1010.39
2018-02-25T10:00:40.728Z,1010.37
2018-02-25T10:01:50.188Z,1010.35
2018-02-25T10:02:59.919Z,1010.34
2018-02-25T10:04:09.999Z,1010.32
2018-02-25T10:05:19.994Z,1010.31
2018-02-25T10:06:29.717Z,1010.29
2018-02-25T10:07:39.438Z,1010.28
2018-02-25T10:08:49.158Z,1010.27
2018-02-25T10:09:59.203Z,1010.36
2018-02-25T10:11:08.664Z,1010.33
2018-02-25T10:12:18.396Z,1010.38
2018-02-25T10:13:28.124Z,1010.32
2018-02-25T10:14:37.845Z,1010.35
2018-02-25T10:15:47.838Z,1010.39
2018-02-25T10:16:57.295Z,1010.34
2018-02-25T10:18:07.285Z,1010.35
2018-02-25T10:19:17.306Z,1010.34
2018-02-25T10:20:27.039Z,1010.35
2018-02-25T10:21:37.042Z,1010.32
2018-02-25T10:22:47.048Z,1010.35
2018-02-25T10:23:56.773Z,1010.3
2018-02-25T10:25:06.772Z,1010.27
2018-02-25T10:26:16.766Z,1010.2
2018-02-25T10:27:26.500Z,1010.19
2018-02-25T10:28:36.322Z,1010.19
2018-02-25T10:29:46.362Z,1010.18
2018-02-25T10:30:55.818Z,1010.1
2018-02-25T10:32:05.282Z,1010.14
2018-02-25T10:33:15.008Z,1010.12
2018-02-25T10:34:24.728Z,1010.15
2018-02-25T10:35:34.452Z,1010.25
2018-02-25T10:36:43.654Z,1010.25
2018-02-25T10:37:53.114Z,1010.26
2018-02-25T10:39:03.109Z,1010.25
2018-02-25T10:40:13.104Z,1010.27
2018-02-25T10:41:22.832Z,1010.22
2018-02-25T10:42:32.563Z,1010.23
2018-02-25T10:43:42.577Z,1010.21
2018-02-25T10:44:52.569Z,1010.2
2018-02-25T10:46:02.298Z,1010.16
2018-02-25T10:47:12.029Z,1010.15
2018-02-25T10:48:21.487Z,1010.19
2018-02-25T10:49:31.213Z,1010.21
2018-02-25T10:50:41.209Z,1010.17
2018-02-25T10:51:50.936Z,1010.14
2018-02-25T10:53:00.929Z,1010.05
2018-02-25T10:54:10.918Z,1010.02
2018-02-25T10:55:20.918Z,1010.09
2018-02-25T10:56:30.646Z,1010.13
2018-02-25T10:57:40.642Z,1010.1
2018-02-25T10:58:50.641Z,1010.17
2018-02-25T11:00:00.640Z,1010.2
2018-02-25T11:01:10.636Z,1010.3
2018-02-25T11:02:20.640Z,1010.33
2018-02-25T11:03:30.646Z,1010.3
2018-02-25T11:04:40.646Z,1010.3
2018-02-25T11:05:50.377Z,1010.3
2018-02-25T11:07:00.365Z,1010.28
2018-02-25T11:08:10.459Z,1010.38
2018-02-25T11:09:20.453Z,1010.36
2018-02-25T11:10:30.453Z,1010.32
2018-02-25T11:11:40.443Z,1010.27
2018-02-25T11:12:50.437Z,1010.34
2018-02-25T11:14:00.165Z,1010.31
2018-02-25T11:15:09.897Z,1010.35
2018-02-25T11:16:19.905Z,1010.35
2018-02-25T11:17:29.904Z,1010.39
2018-02-25T11:18:39.624Z,1010.37
2018-02-25T11:19:49.614Z,1010.33
2018-02-25T11:20:59.353Z,1010.35
2018-02-25T11:22:09.078Z,1010.35
2018-02-25T11:23:19.072Z,1010.32
2018-02-25T11:24:28.529Z,1010.37
2018-02-25T11:25:38.256Z,1010.36
2018-02-25T11:26:48.252Z,1010.34
2018-02-25T11:27:57.981Z,1010.33
2018-02-25T11:29:07.975Z,1010.37
2018-02-25T11:30:17.962Z,1010.35
2018-02-25T11:31:28.074Z,1010.38
2018-02-25T11:32:38.286Z,1010.34
2018-02-25T11:33:48.010Z,1010.38
2018-02-25T11:34:57.999Z,1010.38
2018-02-25T11:36:07.733Z,1010.42
2018-02-25T11:37:17.736Z,1010.43
2018-02-25T11:38:27.731Z,1010.45
2018-02-25T11:39:37.727Z,1010.44
2018-02-25T11:40:47.715Z,1010.46
2018-02-25T11:41:57.717Z,1010.41
2018-02-25T11:43:07.459Z,1010.36
2018-02-25T11:44:16.978Z,1010.37
2018-02-25T11:45:26.706Z,1010.4
2018-02-25T11:46:36.698Z,1010.35
2018-02-25T11:47:46.422Z,1010.31
2018-02-25T11:48:56.418Z,1010.31
2018-02-25T11:50:05.660Z,1010.34
2018-02-25T11:51:15.653Z,1010.34
2018-02-25T11:52:25.384Z,1010.33
2018-02-25T11:53:35.453Z,1010.29
2018-02-25T11:54:45.551Z,1010.35
2018-02-25T11:55:55.546Z,1010.35
2018-02-25T11:57:05.276Z,1010.42
2018-02-25T11:58:15.315Z,1010.43
2018-02-25T11:59:25.052Z,1010.48
2018-02-25T12:00:34.516Z,1010.52
2018-02-25T12:01:43.708Z,1010.54
2018-02-25T12:02:53.706Z,1010.44
2018-02-25T12:04:03.431Z,1010.44
2018-02-25T12:05:12.627Z,1010.44
2018-02-25T12:06:22.626Z,1010.45
2018-02-25T12:07:32.637Z,1010.47
2018-02-25T12:08:42.371Z,1010.46
2018-02-25T12:09:52.365Z,1010.38
2018-02-25T12:11:02.381Z,1010.49
2018-02-25T12:12:12.378Z,1010.46
2018-02-25T12:13:22.377Z,1010.41
2018-02-25T12:14:32.380Z,1010.37
2018-02-25T12:15:42.111Z,1010.49
2018-02-25T12:16:52.107Z,1010.4
2018-02-25T12:18:02.106Z,1010.33
2018-02-25T12:19:12.157Z,1010.43
2018-02-25T12:20:22.158Z,1010.45
2018-02-25T12:21:32.177Z,1010.43
2018-02-25T12:22:42.176Z,1010.38
2018-02-25T12:23:52.190Z,1010.39
2018-02-25T12:25:01.918Z,1010.38
2018-02-25T12:26:11.921Z,1010.33
2018-02-25T12:27:21.926Z,1010.32
2018-02-25T12:28:31.920Z,1010.37
2018-02-25T12:29:41.768Z,1010.41
2018-02-25T12:30:51.759Z,1010.45
2018-02-25T12:32:01.755Z,1010.54
2018-02-25T12:33:11.484Z,1010.56
2018-02-25T12:34:21.492Z,1010.51
2018-02-25T12:35:31.501Z,1010.55
2018-02-25T12:36:41.514Z,1010.51
2018-02-25T12:37:51.248Z,1010.65
2018-02-25T12:39:00.984Z,1010.57
2018-02-25T12:40:10.721Z,1010.66
2018-02-25T12:41:20.724Z,1010.64
2018-02-25T12:42:30.449Z,1010.54
2018-02-25T12:43:40.444Z,1010.43
2018-02-25T12:44:50.184Z,1010.65
2018-02-25T12:45:59.916Z,1010.65
2018-02-25T12:47:09.671Z,1010.61
2018-02-25T12:48:19.668Z,1010.49
2018-02-25T12:49:29.676Z,1010.61
2018-02-25T12:50:39.683Z,1010.55
2018-02-25T12:51:49.440Z,1010.55
2018-02-25T12:52:59.172Z,1010.56
2018-02-25T12:54:08.906Z,1010.59
2018-02-25T12:55:18.646Z,1010.47
2018-02-25T12:56:28.391Z,1010.59
2018-02-25T12:57:38.394Z,1010.66
2018-02-25T12:58:48.440Z,1010.66
2018-02-25T12:59:58.447Z,1010.59
2018-02-25T13:01:07.922Z,1010.68
2018-02-25T13:02:17.940Z,1010.56
2018-02-25T13:03:27.737Z,1010.58
2018-02-25T13:04:37.498Z,1010.54
2018-02-25T13:05:47.505Z,1010.55
2018-02-25T13:06:57.503Z,1010.57
2018-02-25T13:08:07.244Z,1010.57
2018-02-25T13:09:17.274Z,1010.55
2018-02-25T13:10:26.751Z,1010.56
2018-02-25T13:11:36.756Z,1010.35
2018-02-25T13:12:46.494Z,1010.49
2018-02-25T13:13:56.232Z,1010.32
2018-02-25T13:15:06.244Z,1010.51
2018-02-25T13:16:16.247Z,1010.25
2018-02-25T13:17:26.056Z,1010.31
2018-02-25T13:18:36.061Z,1010.33
2018-02-25T13:19:46.107Z,1010.46
2018-02-25T13:20:55.854Z,1010.44
2018-02-25T13:22:05.859Z,1010.43
2018-02-25T13:23:15.601Z,1010.43
2018-02-25T13:24:25.662Z,1010.35
2018-02-25T13:25:35.732Z,1010.31
2018-02-25T13:26:45.740Z,1010.3
2018-02-25T13:27:55.742Z,1010.32
2018-02-25T13:29:05.764Z,1010.34
2018-02-25T13:30:14.966Z,1010.32
2018-02-25T13:31:24.982Z,1010.3
2018-02-25T13:32:34.991Z,1010.31
2018-02-25T13:33:44.994Z,1010.37
2018-02-25T13:34:54.995Z,1010.35
2018-02-25T13:36:04.731Z,1010.4
2018-02-25T13:37:14.473Z,1010.42
2018-02-25T13:38:24.210Z,1010.45
2018-02-25T13:39:34.216Z,1010.37
2018-02-25T13:40:44.219Z,1010.46
2018-02-25T13:41:54.217Z,1010.42
2018-02-25T13:43:03.957Z,1010.37
2018-02-25T13:44:13.693Z,1010.35
2018-02-25T13:45:23.433Z,1010.32
2018-02-25T13:46:33.439Z,1010.31
2018-02-25T13:47:43.174Z,1010.29
2018-02-25T13:48:53.173Z,1010.29
2018-02-25T13:50:03.175Z,1010.28
2018-02-25T13:51:12.640Z,1010.27
2018-02-25T13:52:22.646Z,1010.27
2018-02-25T13:53:32.643Z,1010.26
2018-02-25T13:54:42.638Z,1010.31
2018-02-25T13:55:52.642Z,1010.36
2018-02-25T13:57:02.397Z,1010.33
2018-02-25T13:58:12.147Z,1010.26
2018-02-25T13:59:22.150Z,1010.21
2018-02-25T14:00:31.618Z,1010.19
2018-02-25T14:01:41.352Z,1010.17
2018-02-25T14:02:51.094Z,1010.17
2018-02-25T14:04:00.832Z,1010.19
2018-02-25T14:05:10.841Z,1010.28
2018-02-25T14:06:20.844Z,1010.31
2018-02-25T14:07:30.842Z,1010.32
2018-02-25T14:08:40.577Z,1010.25
2018-02-25T14:09:50.306Z,1010.21